Time;durP1;ratioP1;P1;durP2;ratioP2;P2;SDS_P1;SDS_P2;PMS_P1;PMS_P2;Temp;Humidity;BMP_temperature;BMP_pressure;BME280_temperature;BME280_humidity;BME280_pressure;Samples;Min_cycle;Max_cycle;Signal;HPM_P1;HPM_P2
2023/08/01 00:01:24;;;;;;;53.38;17.95;;;;;;;15.32;100.00;99890.38;5042711;28;20082;-77
2023/08/01 00:03:49;;;;;;;45.50;18.27;;;;;;;15.29;100.00;99880.03;5036102;28;20481;-78
2023/08/01 00:06:14;;;;;;;41.63;17.67;;;;;;;15.29;100.00;99885.28;5042130;28;20037;-78
2023/08/01 00:08:40;;;;;;;44.50;17.08;;;;;;;15.26;100.00;99894.19;5048995;28;20017;-77
2023/08/01 00:11:05;;;;;;;45.38;18.35;;;;;;;15.22;100.00;99880.41;5035582;28;20045;-78
2023/08/01 00:13:30;;;;;;;36.00;16.48;;;;;;;15.22;100.00;99882.19;5042745;28;20385;-78
2023/08/01 00:15:56;;;;;;;46.72;17.85;;;;;;;15.20;100.00;99874.41;5041100;28;20361;-78
2023/08/01 00:18:21;;;;;;;43.70;16.95;;;;;;;15.16;100.00;99885.16;5041375;28;20045;-77
2023/08/01 00:20:46;;;;;;;39.20;16.35;;;;;;;15.11;100.00;99890.69;5047303;28;20440;-77
2023/08/01 00:23:12;;;;;;;35.28;17.27;;;;;;;15.07;100.00;99891.78;5033376;28;20485;-77
2023/08/01 00:25:37;;;;;;;46.22;17.05;;;;;;;15.09;100.00;99884.66;5040606;28;20041;-77
2023/08/01 00:28:02;;;;;;;47.90;18.40;;;;;;;15.04;100.00;99870.09;5047716;28;20021;-77
2023/08/01 00:30:28;;;;;;;40.30;16.42;;;;;;;15.04;100.00;99880.59;5037824;28;20033;-78
2023/08/01 00:32:53;;;;;;;48.08;18.48;;;;;;;15.02;100.00;99877.25;5040745;28;20028;-77
2023/08/01 00:35:19;;;;;;;48.05;17.55;;;;;;;14.99;100.00;99867.75;5043769;28;20427;-77
2023/08/01 00:37:44;;;;;;;50.60;17.20;;;;;;;14.96;100.00;99874.03;5046688;28;20452;-77
2023/08/01 00:40:10;;;;;;;44.42;17.73;;;;;;;14.98;100.00;99868.69;5041145;28;20033;-77
2023/08/01 00:42:38;;;;;;;39.30;16.50;;;;;;;14.92;100.00;99869.88;5046727;28;20047;-77
2023/08/01 00:45:04;;;;;;;36.40;16.73;;;;;;;14.84;100.00;99869.47;5041639;28;20472;-77
2023/08/01 00:47:30;;;;;;;38.13;16.13;;;;;;;14.85;100.00;99876.41;5038712;28;20029;-77
2023/08/01 00:49:55;;;;;;;45.85;16.73;;;;;;;14.81;100.00;99868.78;5045748;28;20079;-77
2023/08/01 00:52:21;;;;;;;51.50;16.80;;;;;;;14.78;100.00;99875.09;5038530;28;20041;-77
2023/08/01 00:54:47;;;;;;;55.95;17.45;;;;;;;14.70;100.00;99872.88;5043691;28;20117;-77
2023/08/01 00:57:13;;;;;;;35.45;16.50;;;;;;;14.67;100.00;99867.78;5042976;28;20131;-77
2023/08/01 00:59:38;;;;;;;37.78;16.02;;;;;;;14.64;100.00;99873.19;5043131;28;20120;-76
2023/08/01 01:02:04;;;;;;;49.25;17.40;;;;;;;14.63;100.00;99876.75;5044291;28;20043;-77
2023/08/01 01:04:30;;;;;;;46.72;16.50;;;;;;;14.55;100.00;99873.75;5043321;28;20107;-77
2023/08/01 01:07:06;;;;;;;42.03;16.00;;;;;;;14.54;100.00;99865.94;5040135;28;20068;-77
2023/08/01 01:09:31;;;;;;;37.80;15.35;;;;;;;14.44;100.00;99865.56;5043347;28;20465;-77
2023/08/01 01:11:57;;;;;;;63.42;16.55;;;;;;;14.44;100.00;99862.94;5043626;28;20028;-77
2023/08/01 01:14:23;;;;;;;42.80;14.63;;;;;;;14.40;100.00;99861.44;5042769;28;20025;-77
2023/08/01 01:16:48;;;;;;;32.78;13.90;;;;;;;14.33;100.00;99860.06;5044112;28;20033;-77
2023/08/01 01:19:13;;;;;;;33.05;13.75;;;;;;;14.32;100.00;99858.38;5037244;28;20036;-77
2023/08/01 01:21:41;;;;;;;37.28;14.75;;;;;;;14.22;100.00;99861.50;5040310;28;20033;-77
2023/08/01 01:24:09;;;;;;;41.15;15.10;;;;;;;14.19;100.00;99866.03;5037709;28;20021;-77
2023/08/01 01:26:36;;;;;;;40.72;13.50;;;;;;;14.16;100.00;99866.19;5043624;28;20052;-77
2023/08/01 01:29:04;;;;;;;29.73;13.13;;;;;;;14.14;100.00;99871.53;5043245;28;20025;-77
2023/08/01 01:31:30;;;;;;;29.40;12.55;;;;;;;14.10;100.00;99867.41;5043432;28;20075;-77
2023/08/01 01:33:56;;;;;;;37.50;13.50;;;;;;;14.09;100.00;99870.94;5042206;28;20531;-77
2023/08/01 01:36:22;;;;;;;31.42;13.45;;;;;;;14.03;100.00;99864.25;5043545;28;20041;-77
2023/08/01 01:38:47;;;;;;;36.08;14.18;;;;;;;14.02;100.00;99857.31;5042689;28;20028;-77
2023/08/01 01:41:13;;;;;;;41.58;13.65;;;;;;;14.00;100.00;99850.47;5043156;28;20029;-77
2023/08/01 01:43:38;;;;;;;37.65;13.65;;;;;;;13.98;100.00;99863.66;5043883;28;20442;-77
2023/08/01 01:46:04;;;;;;;30.10;12.75;;;;;;;13.94;100.00;99854.25;5042423;28;20087;-77
2023/08/01 01:48:29;;;;;;;40.60;13.52;;;;;;;13.95;100.00;99852.47;5045211;28;20385;-77
2023/08/01 01:50:54;;;;;;;33.78;14.02;;;;;;;13.93;100.00;99862.19;5040538;28;20457;-77
2023/08/01 01:53:20;;;;;;;42.75;14.57;;;;;;;13.88;100.00;99846.72;5044338;28;20477;-77
2023/08/01 01:55:45;;;;;;;41.75;13.95;;;;;;;13.84;100.00;99858.31;5038952;28;20052;-77
2023/08/01 01:58:10;;;;;;;47.10;15.02;;;;;;;13.84;100.00;99860.91;5038740;28;20040;-77
2023/08/01 02:00:36;;;;;;;32.88;13.85;;;;;;;13.81;100.00;99851.44;5042870;28;20423;-77
2023/08/01 02:03:02;;;;;;;41.58;14.18;;;;;;;13.81;100.00;99856.69;5039808;28;20022;-78
2023/08/01 02:05:31;;;;;;;40.25;15.57;;;;;;;13.78;100.00;99862.06;5048221;28;20053;-77
2023/08/01 02:07:56;;;;;;;50.28;15.75;;;;;;;13.80;100.00;99859.41;5043249;28;20103;-77
2023/08/01 02:10:21;;;;;;;59.47;17.98;;;;;;;13.76;100.00;99857.84;5040702;28;20113;-77
2023/08/01 02:12:47;;;;;;;44.10;16.35;;;;;;;13.73;100.00;99852.75;5040507;28;20071;-77
2023/08/01 02:15:12;;;;;;;49.47;16.55;;;;;;;13.70;100.00;99858.16;5038357;28;20175;-77
2023/08/01 02:17:37;;;;;;;55.10;18.00;;;;;;;13.69;100.00;99857.31;5042820;28;20053;-77
2023/08/01 02:20:03;;;;;;;46.83;17.90;;;;;;;13.69;100.00;99859.94;5037636;28;20017;-77
2023/08/01 02:22:28;;;;;;;55.10;17.67;;;;;;;13.64;100.00;99861.13;5037794;28;20100;-77
2023/08/01 02:24:53;;;;;;;53.05;19.35;;;;;;;13.60;100.00;99857.78;5041950;28;20028;-77
2023/08/01 02:27:19;;;;;;;54.17;19.23;;;;;;;13.61;100.00;99856.88;5046200;28;20055;-77
2023/08/01 02:29:44;;;;;;;53.65;19.17;;;;;;;13.58;100.00;99857.03;5043603;28;20502;-77
2023/08/01 02:32:10;;;;;;;66.20;20.15;;;;;;;13.67;100.00;99853.94;5043176;28;20025;-78
2023/08/01 02:34:35;;;;;;;62.13;20.88;;;;;;;13.75;100.00;99862.25;5043266;28;20044;-77
2023/08/01 02:37:00;;;;;;;58.03;19.73;;;;;;;13.81;100.00;99864.53;5043371;28;20051;-77
2023/08/01 02:39:26;;;;;;;69.63;21.15;;;;;;;13.81;100.00;99864.53;5039599;28;20021;-77
2023/08/01 02:41:51;;;;;;;65.72;21.63;;;;;;;13.87;100.00;99873.03;5046849;28;20064;-77
2023/08/01 02:44:16;;;;;;;62.67;21.40;;;;;;;13.88;100.00;99872.09;5042641;28;20029;-78
2023/08/01 02:46:42;;;;;;;73.20;22.23;;;;;;;13.88;100.00;99869.47;5042522;28;20033;-78
2023/08/01 02:49:07;;;;;;;67.20;21.02;;;;;;;13.95;100.00;99878.69;5047734;28;20034;-78
2023/08/01 02:51:32;;;;;;;78.47;22.15;;;;;;;13.95;100.00;99883.94;5039623;28;20029;-77
2023/08/01 02:53:57;;;;;;;68.03;22.33;;;;;;;13.93;100.00;99880.53;5044935;28;20124;-77
2023/08/01 02:56:23;;;;;;;66.20;23.00;;;;;;;13.94;100.00;99872.59;5040265;28;20491;-77
2023/08/01 02:58:48;;;;;;;72.38;22.85;;;;;;;13.98;100.00;99879.38;5046785;28;20025;-77
2023/08/01 03:01:13;;;;;;;72.88;22.48;;;;;;;13.97;100.00;99872.44;5039390;28;20033;-77
2023/08/01 03:03:39;;;;;;;76.65;24.02;;;;;;;13.98;100.00;99878.53;5043402;28;20108;-77
2023/08/01 03:06:04;;;;;;;88.53;23.67;;;;;;;13.97;100.00;99866.38;5038895;28;20393;-77
2023/08/01 03:08:30;;;;;;;76.15;22.75;;;;;;;14.01;100.00;99868.72;5037048;28;20028;-77
2023/08/01 03:10:55;;;;;;;79.50;24.98;;;;;;;13.97;100.00;99872.44;5038804;28;20120;-77
2023/08/01 03:13:21;;;;;;;86.72;25.23;;;;;;;13.98;100.00;99868.03;5043330;28;20040;-77
2023/08/01 03:15:47;;;;;;;88.00;26.20;;;;;;;13.95;100.00;99862.97;5042029;28;20492;-77
2023/08/01 03:18:12;;;;;;;85.43;27.73;;;;;;;13.95;100.00;99873.44;5038940;28;20029;-76
2023/08/01 03:20:37;;;;;;;84.40;28.33;;;;;;;13.91;100.00;99859.66;5034216;28;20025;-77
2023/08/01 03:23:03;;;;;;;102.53;30.27;;;;;;;13.93;100.00;99870.06;5045128;28;20057;-76
2023/08/01 03:25:28;;;;;;;96.82;29.10;;;;;;;13.94;100.00;99866.53;5041096;28;20021;-77
2023/08/01 03:27:54;;;;;;;96.40;29.77;;;;;;;13.95;100.00;99868.22;5031340;28;20025;-76
2023/08/01 03:30:20;;;;;;;104.75;30.73;;;;;;;13.96;100.00;99878.63;5047034;28;20059;-77
2023/08/01 03:32:46;;;;;;;96.95;30.00;;;;;;;13.91;100.00;99856.19;5043464;28;20030;-77
2023/08/01 03:35:13;;;;;;;104.95;31.95;;;;;;;13.94;100.00;99867.38;5047706;28;20155;-77
2023/08/01 03:37:39;;;;;;;119.00;33.53;;;;;;;13.93;100.00;99872.66;5036001;28;20039;-77
2023/08/01 03:40:05;;;;;;;112.07;32.55;;;;;;;13.94;100.00;99874.38;5045046;28;20399;-77
2023/08/01 03:42:33;;;;;;;118.80;34.38;;;;;;;13.94;100.00;99879.63;5041382;28;20412;-77
2023/08/01 03:45:00;;;;;;;108.35;33.78;;;;;;;13.94;100.00;99872.59;5050680;28;20385;-77
2023/08/01 03:47:25;;;;;;;104.10;35.05;;;;;;;13.92;100.00;99884.09;5041761;28;20056;-78
2023/08/01 03:49:51;;;;;;;108.63;33.50;;;;;;;13.90;100.00;99876.31;5041796;28;20044;-76
2023/08/01 03:52:16;;;;;;;103.38;35.92;;;;;;;13.92;100.00;99873.59;5047726;28;20059;-77
2023/08/01 03:54:41;;;;;;;115.03;36.92;;;;;;;13.92;100.00;99879.69;5035435;28;20025;-77
2023/08/01 03:57:06;;;;;;;109.45;35.38;;;;;;;13.98;100.00;99884.63;5047779;28;20071;-77
2023/08/01 03:59:32;;;;;;;111.95;36.40;;;;;;;14.00;100.00;99885.38;5041836;28;20034;-77
2023/08/01 04:01:57;;;;;;;123.80;37.05;;;;;;;13.97;100.00;99882.94;5046664;28;20040;-77
2023/08/01 04:04:22;;;;;;;108.88;35.85;;;;;;;13.94;100.00;99879.63;5042516;28;20470;-77
2023/08/01 04:06:48;;;;;;;114.07;37.50;;;;;;;13.92;100.00;99884.09;5044179;28;20051;-77
2023/08/01 04:09:13;;;;;;;111.90;35.95;;;;;;;13.93;100.00;99870.06;5048657;28;20063;-77
2023/08/01 04:11:38;;;;;;;138.05;37.10;;;;;;;13.93;100.00;99877.91;5041193;28;20680;-76
2023/08/01 04:14:04;;;;;;;102.95;34.95;;;;;;;13.88;100.00;99877.31;5047646;28;20060;-77
2023/08/01 04:16:29;;;;;;;119.90;35.53;;;;;;;13.84;100.00;99878.41;5042183;28;20082;-76
2023/08/01 04:18:55;;;;;;;103.60;35.55;;;;;;;13.79;100.00;99884.72;5045677;28;20025;-77
2023/08/01 04:21:20;;;;;;;113.70;35.53;;;;;;;13.80;100.00;99885.59;5044694;28;20465;-77
2023/08/01 04:23:45;;;;;;;146.02;36.78;;;;;;;13.82;100.00;99881.94;5043267;28;20029;-77
2023/08/01 04:26:10;;;;;;;116.40;36.45;;;;;;;13.78;100.00;99869.94;5043158;28;20052;-76
2023/08/01 04:28:36;;;;;;;103.68;34.85;;;;;;;13.79;100.00;99869.00;5040637;28;20490;-76
2023/08/01 04:31:01;;;;;;;116.22;35.42;;;;;;;13.83;100.00;99867.06;5041758;28;20571;-77
2023/08/01 04:33:27;;;;;;;115.18;36.30;;;;;;;13.91;100.00;99874.53;5046834;28;20491;-77
2023/08/01 04:35:52;;;;;;;112.15;34.75;;;;;;;13.95;100.00;99879.53;5043757;28;20373;-76
2023/08/01 04:38:17;;;;;;;117.88;35.95;;;;;;;13.97;100.00;99868.97;5040743;28;20033;-77
2023/08/01 04:40:43;;;;;;;114.88;36.83;;;;;;;14.01;100.00;99873.13;5037060;28;20045;-77
2023/08/01 04:43:09;;;;;;;112.30;36.60;;;;;;;14.04;100.00;99881.66;5030583;28;20051;-77
2023/08/01 04:45:34;;;;;;;111.80;37.40;;;;;;;14.09;100.00;99875.34;5042565;28;20515;-76
2023/08/01 04:48:00;;;;;;;117.05;37.42;;;;;;;14.11;100.00;99876.09;5041233;28;20390;-76
2023/08/01 04:50:25;;;;;;;110.80;37.00;;;;;;;14.16;100.00;99889.78;5042679;28;20028;-77
2023/08/01 04:52:50;;;;;;;114.60;35.80;;;;;;;14.17;100.00;99892.34;5036491;28;20472;-77
2023/08/01 04:55:16;;;;;;;97.22;34.90;;;;;;;14.17;100.00;99894.13;5041473;28;21314;-77
2023/08/01 04:57:41;;;;;;;109.38;34.58;;;;;;;14.18;100.00;99896.66;5040191;28;20033;-77
2023/08/01 05:00:07;;;;;;;103.07;34.58;;;;;;;14.16;100.00;99898.53;5041062;28;20116;-77
2023/08/01 05:02:32;;;;;;;120.05;35.05;;;;;;;14.18;100.00;99895.81;5045974;28;20495;-77
2023/08/01 05:04:58;;;;;;;100.55;34.85;;;;;;;14.20;100.00;99892.19;5040138;28;20349;-76
2023/08/01 05:07:23;;;;;;;96.82;33.92;;;;;;;14.20;100.00;99899.22;5040374;28;20075;-77
2023/08/01 05:09:48;;;;;;;105.63;33.95;;;;;;;14.16;100.00;99888.03;5040700;28;20061;-77
2023/08/01 05:12:13;;;;;;;101.22;35.17;;;;;;;14.20;100.00;99894.81;5040385;28;20037;-77
2023/08/01 05:14:39;;;;;;;97.40;33.50;;;;;;;14.18;100.00;99896.66;5048308;28;20029;-77
2023/08/01 05:17:04;;;;;;;91.75;32.03;;;;;;;14.16;100.00;99909.00;5040587;28;20036;-77
2023/08/01 05:19:30;;;;;;;83.80;31.35;;;;;;;14.10;100.00;99901.47;5047234;28;20495;-77
2023/08/01 05:21:55;;;;;;;84.75;30.70;;;;;;;14.10;100.00;99898.00;5040534;28;20037;-77
2023/08/01 05:24:21;;;;;;;91.95;32.17;;;;;;;14.11;100.00;99900.53;5047603;28;20029;-77
2023/08/01 05:26:47;;;;;;;85.32;31.60;;;;;;;14.02;100.00;99890.53;5040296;28;20110;-78
2023/08/01 05:29:12;;;;;;;96.60;32.08;;;;;;;14.08;100.00;99905.94;5046198;28;20090;-77
2023/08/01 05:31:37;;;;;;;79.20;30.23;;;;;;;14.06;100.00;99910.44;5042770;28;20524;-77
2023/08/01 05:34:03;;;;;;;87.55;31.73;;;;;;;14.10;100.00;99914.56;5043759;28;20388;-77
2023/08/01 05:36:28;;;;;;;85.18;31.42;;;;;;;14.12;100.00;99906.63;5043471;28;20047;-77
2023/08/01 05:38:53;;;;;;;91.43;31.77;;;;;;;14.16;100.00;99914.25;5044478;28;20033;-77
2023/08/01 05:41:19;;;;;;;83.63;31.13;;;;;;;14.22;100.00;99903.44;5043410;28;20109;-77
2023/08/01 05:43:46;;;;;;;85.72;32.75;;;;;;;14.31;100.00;99901.25;5043147;28;20028;-77
2023/08/01 05:46:12;;;;;;;93.78;32.83;;;;;;;14.39;100.00;99901.69;5032951;28;20033;-77
2023/08/01 05:48:37;;;;;;;88.28;31.98;;;;;;;14.45;100.00;99898.72;5042900;28;20509;-77
2023/08/01 05:51:02;;;;;;;86.82;31.17;;;;;;;14.49;100.00;99908.97;5040568;28;20053;-77
2023/08/01 05:53:28;;;;;;;82.53;31.20;;;;;;;14.50;100.00;99913.31;5046833;28;20124;-77
2023/08/01 05:55:54;;;;;;;92.65;32.65;;;;;;;14.51;100.00;99914.16;5041699;28;20033;-77
2023/08/01 05:58:19;;;;;;;84.50;31.63;;;;;;;14.46;100.00;99921.41;5046707;28;20128;-77
2023/08/01 06:00:44;;;;;;;78.50;30.98;;;;;;;14.46;100.00;99911.75;5047118;28;20098;-77
2023/08/01 06:03:10;;;;;;;77.03;31.60;;;;;;;14.65;100.00;99913.38;5044367;28;20377;-77
2023/08/01 06:05:35;;;;;;;83.88;32.30;;;;;;;14.82;100.00;99910.69;5046887;28;20091;-77
2023/08/01 06:08:01;;;;;;;88.30;32.60;;;;;;;14.90;100.00;99915.50;5047012;28;20021;-77
2023/08/01 06:10:26;;;;;;;87.00;33.05;;;;;;;15.02;100.00;99917.44;5045299;28;20465;-77
2023/08/01 06:12:51;;;;;;;83.75;30.83;;;;;;;15.05;100.00;99921.69;5043044;28;20451;-77
2023/08/01 06:15:17;;;;;;;76.70;30.05;;;;;;;15.06;100.00;99926.84;5048854;28;20056;-77
2023/08/01 06:17:42;;;;;;;74.30;30.90;;;;;;;15.12;100.00;99929.13;5044281;28;20033;-78
2023/08/01 06:20:08;;;;;;;71.35;30.88;;;;;;;15.09;100.00;99931.91;5047510;28;20026;-77
2023/08/01 06:22:33;;;;;;;74.70;29.95;;;;;;;15.03;100.00;99927.00;5037325;28;20029;-78
2023/08/01 06:24:59;;;;;;;70.63;27.98;;;;;;;15.03;100.00;99932.25;5027553;28;20041;-77
2023/08/01 06:27:24;;;;;;;63.63;28.27;;;;;;;14.99;100.00;99936.00;5023105;28;20053;-78
2023/08/01 06:29:50;;;;;;;60.13;27.85;;;;;;;14.91;100.00;99922.44;5026094;28;20033;-77
2023/08/01 06:32:15;;;;;;;65.47;27.33;;;;;;;14.96;100.00;99936.16;5026089;28;20088;-78
2023/08/01 06:34:40;;;;;;;70.30;29.27;;;;;;;15.03;100.00;99937.50;5026096;28;20026;-77
2023/08/01 06:37:06;;;;;;;64.20;29.35;;;;;;;15.08;100.00;99921.53;5035437;28;20383;-78
2023/08/01 06:39:31;;;;;;;64.03;29.33;;;;;;;15.06;100.00;99937.34;5032116;28;20025;-77
2023/08/01 06:41:57;;;;;;;64.88;28.75;;;;;;;15.01;100.00;99936.78;5037614;28;20022;-77
2023/08/01 06:44:22;;;;;;;72.57;30.10;;;;;;;15.28;100.00;99941.38;5037589;28;20017;-77
2023/08/01 06:46:47;;;;;;;69.45;30.95;;;;;;;15.51;100.00;99938.28;5030711;28;20053;-78
2023/08/01 06:49:13;;;;;;;74.40;30.88;;;;;;;15.68;100.00;99935.53;5026592;28;20040;-79
2023/08/01 06:51:38;;;;;;;66.50;29.48;;;;;;;15.66;100.00;99941.78;5037974;28;20131;-81
2023/08/01 06:54:03;;;;;;;61.38;28.98;;;;;;;15.67;100.00;99943.50;5029804;28;20049;-83
2023/08/01 06:56:29;;;;;;;57.17;28.08;;;;;;;15.67;100.00;99939.09;5032971;28;20028;-84
2023/08/01 06:58:54;;;;;;;51.78;24.95;;;;;;;15.62;100.00;99946.34;5029556;28;20033;-84
2023/08/01 07:01:19;;;;;;;46.08;24.70;;;;;;;15.53;100.00;99951.31;5027371;28;20029;-82
2023/08/01 07:03:45;;;;;;;42.65;22.85;;;;;;;15.37;100.00;99957.47;5027526;28;20084;-83
2023/08/01 07:06:11;;;;;;;42.97;23.38;;;;;;;15.29;100.00;99956.19;5018439;28;20026;-85
2023/08/01 07:08:36;;;;;;;46.25;22.88;;;;;;;15.38;100.00;99958.31;5028839;28;20032;-83
2023/08/01 07:11:02;;;;;;;46.65;23.20;;;;;;;15.58;100.00;99959.78;5041956;28;20025;-85
2023/08/01 07:13:27;;;;;;;46.00;24.20;;;;;;;15.72;100.00;99962.47;5032188;28;20058;-82
2023/08/01 07:15:53;;;;;;;46.85;23.27;;;;;;;15.83;100.00;99962.69;5033108;28;20481;-83
2023/08/01 07:18:19;;;;;;;40.35;22.50;;;;;;;15.99;100.00;99964.38;5030746;28;20464;-82
2023/08/01 07:20:44;;;;;;;35.63;20.38;;;;;;;16.05;100.00;99953.50;5032231;28;20120;-82
2023/08/01 07:23:09;;;;;;;32.75;18.30;;;;;;;16.11;100.00;99963.66;5032604;28;20022;-85
2023/08/01 07:25:35;;;;;;;28.75;17.88;;;;;;;16.09;100.00;99949.78;5030670;28;20025;-78
2023/08/01 07:28:00;;;;;;;26.45;17.20;;;;;;;15.94;100.00;99943.66;5028837;28;20163;-76
2023/08/01 07:30:25;;;;;;;26.40;15.32;;;;;;;15.72;100.00;99951.13;5033966;28;20072;-80
2023/08/01 07:32:51;;;;;;;32.90;15.60;;;;;;;15.63;100.00;99957.72;5031689;28;20025;-80
2023/08/01 07:35:16;;;;;;;27.35;16.25;;;;;;;15.57;100.00;99958.94;5037609;28;20137;-82
2023/08/01 07:37:41;;;;;;;30.98;16.70;;;;;;;15.63;100.00;99957.72;5033955;28;20079;-81
2023/08/01 07:40:08;;;;;;;27.67;16.25;;;;;;;15.86;100.00;99961.69;5032650;28;20032;-81
2023/08/01 07:42:33;;;;;;;27.63;17.17;;;;;;;16.21;100.00;99964.78;5031596;28;20025;-81
2023/08/01 07:44:58;;;;;;;28.50;15.98;;;;;;;16.20;100.00;99957.00;5036781;28;20040;-79
2023/08/01 07:47:24;;;;;;;27.10;15.20;;;;;;;16.08;100.00;99959.44;5035347;28;20064;-80
2023/08/01 07:49:50;;;;;;;19.92;13.63;;;;;;;16.02;100.00;99956.31;5029987;28;20366;-80
2023/08/01 07:52:15;;;;;;;20.02;12.35;;;;;;;16.05;100.00;99971.91;5031564;28;20096;-80
2023/08/01 07:54:40;;;;;;;22.83;12.43;;;;;;;16.13;100.00;99967.91;5045130;28;20044;-79
2023/08/01 07:57:06;;;;;;;22.08;13.30;;;;;;;16.33;100.00;99968.47;5036906;28;20500;-80
2023/08/01 07:59:31;;;;;;;20.23;10.55;;;;;;;16.36;100.00;99977.03;5031761;28;20021;-81
2023/08/01 08:01:57;;;;;;;15.77;10.43;;;;;;;16.35;100.00;99969.22;5032310;28;20033;-82
2023/08/01 08:04:22;;;;;;;15.10;9.15;;;;;;;16.41;100.00;99974.09;5033436;28;20476;-83
2023/08/01 08:06:47;;;;;;;11.57;8.43;;;;;;;16.26;100.00;99981.16;5032093;28;20033;-82
2023/08/01 08:09:13;;;;;;;16.80;8.25;;;;;;;16.28;100.00;99973.16;5031714;28;20077;-82
2023/08/01 08:11:38;;;;;;;16.48;7.82;;;;;;;16.27;100.00;99976.72;5032979;28;20068;-82
2023/08/01 08:14:03;;;;;;;12.55;8.13;;;;;;;16.12;100.00;99970.59;5031855;28;20029;-80
2023/08/01 08:16:29;;;;;;;13.13;6.85;;;;;;;16.19;100.00;99979.00;5027160;28;20033;-81
2023/08/01 08:18:54;;;;;;;16.35;8.90;;;;;;;16.34;100.00;99978.03;5029727;28;20036;-80
2023/08/01 08:21:20;;;;;;;17.05;9.73;;;;;;;16.50;100.00;99981.44;5033685;28;20033;-80
2023/08/01 08:23:45;;;;;;;13.75;8.52;;;;;;;16.63;100.00;99953.41;5032619;28;20029;-89
2023/08/01 08:26:11;;;;;;;13.25;8.00;;;;;;;16.90;100.00;99968.44;5036447;28;20464;-77
2023/08/01 08:28:36;;;;;;;12.38;7.95;;;;;;;17.25;100.00;99965.31;5031288;28;20041;-76
2023/08/01 08:31:02;;;;;;;13.23;8.68;;;;;;;17.45;100.00;99977.19;5039955;28;20572;-76
2023/08/01 08:33:28;;;;;;;15.05;8.93;;;;;;;17.66;100.00;99974.94;5032408;28;20029;-77
2023/08/01 08:35:53;;;;;;;12.05;9.10;;;;;;;17.91;100.00;99982.91;5036217;28;20026;-76
2023/08/01 08:38:19;;;;;;;13.73;8.35;;;;;;;18.30;100.00;99981.13;5036237;28;20574;-76
2023/08/01 08:41:07;;;;;;;11.57;7.70;;;;;;;18.32;100.00;99981.88;5039179;28;20476;-76
2023/08/01 08:43:33;;;;;;;12.98;6.93;;;;;;;17.99;100.00;99977.97;5043204;28;20029;-76
2023/08/01 08:46:01;;;;;;;11.43;6.00;;;;;;;17.62;100.00;99994.53;5042726;28;20516;-76
2023/08/01 08:48:27;;;;;;;10.85;6.03;;;;;;;17.12;100.00;99996.03;5043949;28;20122;-76
2023/08/01 08:50:56;;;;;;;9.82;5.70;;;;;;;16.61;100.00;99992.16;5042678;28;20486;-76
2023/08/01 08:53:23;;;;;;;12.45;6.40;;;;;;;16.19;100.00;100000.03;5023241;28;20049;-76
2023/08/01 08:55:48;;;;;;;16.40;6.15;;;;;;;15.87;100.00;100002.78;5032648;28;20032;-77
2023/08/01 08:58:15;;;;;;;11.13;5.53;;;;;;;15.83;100.00;100003.91;5029127;28;20045;-81
2023/08/01 09:00:41;;;;;;;7.75;5.30;;;;;;;15.64;100.00;100004.94;5029065;28;20116;-78
2023/08/01 09:03:06;;;;;;;13.10;6.43;;;;;;;15.68;100.00;100008.25;5029813;28;20167;-77
2023/08/01 09:05:59;;;;;;;8.80;5.30;;;;;;;15.66;100.00;100018.88;5032220;28;20524;-78
2023/08/01 09:08:29;;;;;;;13.02;6.63;;;;;;;15.61;100.00;100009.53;5038658;28;20041;-79
2023/08/01 09:10:54;;;;;;;13.30;6.50;;;;;;;15.65;100.00;100009.25;5042498;28;20024;-81
2023/08/01 09:13:20;;;;;;;11.48;6.53;;;;;;;15.63;100.00;100005.88;5042412;28;20102;-81
2023/08/01 09:15:46;;;;;;;10.85;5.72;;;;;;;15.57;100.00;100015.88;5043244;28;20190;-80
2023/08/01 09:18:11;;;;;;;13.57;6.50;;;;;;;15.49;100.00;100018.94;5043595;28;20033;-79
2023/08/01 09:20:45;;;;;;;10.40;5.47;;;;;;;15.50;100.00;100036.41;5042960;28;20028;-80
2023/08/01 09:23:11;;;;;;;9.90;5.28;;;;;;;15.53;100.00;100025.72;5043468;28;20036;-80
2023/08/01 09:25:37;;;;;;;8.25;5.57;;;;;;;15.50;100.00;100025.91;5041753;28;20026;-81
2023/08/01 09:28:02;;;;;;;9.43;5.63;;;;;;;15.48;100.00;100035.63;5043782;28;20056;-81
2023/08/01 09:30:28;;;;;;;15.05;5.97;;;;;;;15.44;100.00;100016.56;5043749;28;20045;-80
2023/08/01 09:32:54;;;;;;;14.18;6.80;;;;;;;15.44;100.00;100028.88;5042879;28;20469;-79
2023/08/01 09:35:21;;;;;;;14.57;7.38;;;;;;;15.54;100.00;100027.41;5046045;28;20025;-80
2023/08/01 09:37:47;;;;;;;17.33;7.63;;;;;;;15.66;100.00;100024.13;5040037;28;20079;-79
2023/08/01 09:40:13;;;;;;;14.52;7.72;;;;;;;15.63;100.00;100034.78;5036004;28;20021;-78
2023/08/01 09:42:40;;;;;;;14.60;6.85;;;;;;;15.45;100.00;100030.56;5041221;28;20472;-78
2023/08/01 09:45:16;;;;;;;15.82;6.50;;;;;;;15.58;100.00;100023.66;5042984;28;20037;-77
2023/08/01 09:47:43;;;;;;;16.33;6.10;;;;;;;15.73;100.00;100031.63;5041509;28;20413;-79
2023/08/01 09:50:10;;;;;;;8.43;5.20;;;;;;;15.77;100.00;100035.78;5042951;28;20064;-78
2023/08/01 09:52:36;;;;;;;9.55;5.22;;;;;;;16.07;100.00;100041.03;5043235;28;20025;-77
2023/08/01 09:55:02;;;;;;;9.48;4.82;;;;;;;16.17;100.00;100029.03;5040899;28;20505;-77
2023/08/01 09:57:30;;;;;;;8.68;4.88;;;;;;;16.45;100.00;100030.88;5044920;28;20045;-77
2023/08/01 09:59:59;;;;;;;9.55;4.68;;;;;;;16.90;100.00;100034.25;5040500;28;20034;-77
2023/08/01 10:02:31;;;;;;;9.88;4.82;;;;;;;16.98;100.00;100025.88;5045558;28;20028;-78
2023/08/01 10:05:00;;;;;;;12.45;4.55;;;;;;;17.02;100.00;100028.22;5035318;28;20558;-77
2023/08/01 10:07:28;;;;;;;12.57;5.28;;;;;;;16.92;100.00;100032.38;5041831;28;20106;-77
2023/08/01 10:09:58;;;;;;;10.30;5.32;;;;;;;17.01;100.00;100041.50;5045055;28;20045;-77
2023/08/01 10:12:26;;;;;;;12.50;5.90;;;;;;;17.15;100.00;100035.34;5041248;28;20037;-77
2023/08/01 10:14:51;;;;;;;11.82;5.75;;;;;;;17.12;100.00;100023.22;5045697;28;20033;-77
2023/08/01 10:17:17;;;;;;;13.95;6.57;;;;;;;17.28;100.00;100047.63;5040192;28;20029;-77
2023/08/01 10:19:43;;;;;;;13.07;6.03;;;;;;;17.43;100.00;100043.19;5047564;28;20080;-78
2023/08/01 10:22:09;;;;;;;13.68;6.68;;;;;;;17.70;100.00;100037.06;5039549;28;20428;-77
2023/08/01 10:24:36;;;;;;;14.93;5.75;;;;;;;17.73;100.00;100026.31;5047581;28;20368;-77
2023/08/01 10:27:15;;;;;;;13.63;5.78;;;;;;;17.64;100.00;100037.44;5039841;28;20025;-77
2023/08/01 10:29:42;;;;;;;13.27;5.22;;;;;;;17.33;100.00;100044.72;5047482;28;20024;-77
2023/08/01 10:32:07;;;;;;;11.32;5.35;;;;;;;17.14;100.00;100038.94;5040013;28;20029;-77
2023/08/01 10:34:32;;;;;;;14.05;5.80;;;;;;;16.94;100.00;100043.66;5047539;28;20373;-77
2023/08/01 10:36:59;;;;;;;24.05;6.90;;;;;;;16.69;100.00;100057.47;5039596;28;20041;-79
2023/08/01 10:39:26;;;;;;;23.83;7.78;;;;;;;16.67;100.00;100050.59;5036642;28;20033;-79
2023/08/01 10:42:18;;;;;;;18.30;7.13;;;;;;;16.79;100.00;100049.88;5049096;28;20037;-80
2023/08/01 10:44:46;;;;;;;15.52;6.47;;;;;;;16.67;100.00;100050.59;5037136;28;20408;-81
2023/08/01 10:47:11;;;;;;;17.38;6.78;;;;;;;16.60;100.00;100050.97;5048653;28;20366;-79
2023/08/01 10:49:39;;;;;;;17.40;7.68;;;;;;;16.63;100.00;100056.03;5042734;28;20087;-79
2023/08/01 10:52:20;;;;;;;16.73;7.47;;;;;;;16.57;100.00;100050.31;5048781;28;20499;-79
2023/08/01 10:54:46;;;;;;;21.75;7.32;;;;;;;16.58;100.00;100058.13;5038370;28;20030;-78
2023/08/01 10:57:17;;;;;;;19.98;7.93;;;;;;;16.60;100.00;100056.22;5048278;28;20480;-79
2023/08/01 10:59:43;;;;;;;21.58;7.70;;;;;;;16.66;100.00;100059.44;5042754;28;20531;-79
2023/08/01 11:02:08;;;;;;;18.23;7.18;;;;;;;16.73;100.00;100077.38;5049125;28;20020;-78
2023/08/01 11:04:34;;;;;;;15.20;6.70;;;;;;;16.75;100.00;100070.28;5042330;28;20104;-79